Time;durP1;ratioP1;P1;durP2;ratioP2;P2;SDS_P1;SDS_P2;PMS_P1;PMS_P2;Temp;Humidity;BMP_temperature;BMP_pressure;BME280_temperature;BME280_humidity;BME280_pressure;Samples;Min_cycle;Max_cycle;Signal;HPM_P1;HPM_P2
2023/01/27 00:00:39;;;;;;;18.93;2.90;;;6.90;99.90;;;;;;5009719;28;20206;-88
2023/01/27 00:03:06;;;;;;;14.47;3.47;;;6.90;99.90;;;;;;5008705;28;20290;-86
2023/01/27 00:05:33;;;;;;;11.80;2.60;;;6.90;99.90;;;;;;5008377;28;20221;-91
2023/01/27 00:08:01;;;;;;;16.83;3.10;;;6.90;99.90;;;;;;5004131;28;20219;-86
2023/01/27 00:10:28;;;;;;;14.33;2.87;;;6.90;99.90;;;;;;5003142;28;20640;-89
2023/01/27 00:15:40;;;;;;;11.47;2.60;;;6.80;99.90;;;;;;5004973;28;20666;-85
2023/01/27 00:18:08;;;;;;;10.60;2.00;;;6.80;99.90;;;;;;5004629;28;20637;-85
2023/01/27 00:26:07;;;;;;;12.67;2.83;;;6.90;99.90;;;;;;5000435;28;20269;-86
2023/01/27 00:28:36;;;;;;;15.50;2.80;;;6.90;99.90;;;;;;5008891;28;20318;-86
2023/01/27 00:31:04;;;;;;;9.03;2.00;;;6.90;99.90;;;;;;5008079;28;20314;-84
2023/01/27 00:33:31;;;;;;;6.53;1.80;;;6.90;99.90;;;;;;5008549;28;20729;-85
2023/01/27 00:36:00;;;;;;;13.60;3.17;;;6.90;99.90;;;;;;4985392;28;20208;-85
2023/01/27 00:38:28;;;;;;;10.77;2.47;;;6.90;99.90;;;;;;4985767;28;20697;-84
2023/01/27 00:43:42;;;;;;;9.00;2.50;;;6.90;99.90;;;;;;5011616;28;20326;-85
2023/01/27 00:46:09;;;;;;;9.27;2.20;;;6.90;99.90;;;;;;5008436;28;20282;-85
2023/01/27 00:48:37;;;;;;;9.87;2.20;;;6.90;99.90;;;;;;5011080;28;20924;-87
2023/01/27 00:51:04;;;;;;;9.27;2.90;;;6.90;99.90;;;;;;5012347;28;20310;-84
2023/01/27 00:53:31;;;;;;;8.03;2.00;;;6.90;99.90;;;;;;5011782;28;20262;-85
2023/01/27 00:55:58;;;;;;;9.27;2.17;;;6.90;99.90;;;;;;5012341;28;20274;-84
2023/01/27 00:58:26;;;;;;;10.67;2.20;;;6.90;99.90;;;;;;5011198;28;20215;-85
2023/01/27 01:00:55;;;;;;;7.97;2.03;;;6.90;99.90;;;;;;5012263;28;20828;-84
2023/01/27 01:03:22;;;;;;;10.00;2.23;;;6.90;99.90;;;;;;5011453;28;20291;-85
2023/01/27 01:05:49;;;;;;;9.60;2.27;;;6.90;99.90;;;;;;5012340;28;20235;-86
2023/01/27 01:08:16;;;;;;;11.80;2.97;;;6.90;99.90;;;;;;5012061;28;20625;-83
2023/01/27 01:10:44;;;;;;;8.83;2.23;;;6.90;99.90;;;;;;5011695;28;20216;-87
2023/01/27 01:13:11;;;;;;;8.47;2.67;;;6.90;99.90;;;;;;5011777;28;20223;-87
2023/01/27 01:15:39;;;;;;;7.90;2.37;;;6.90;99.90;;;;;;5012425;28;20223;-86
2023/01/27 01:18:09;;;;;;;10.10;2.43;;;6.80;99.90;;;;;;5012183;28;20211;-85
2023/01/27 01:20:38;;;;;;;5.60;1.90;;;6.80;99.90;;;;;;5012003;28;20203;-83
2023/01/27 01:23:06;;;;;;;8.33;1.77;;;6.80;99.90;;;;;;5012057;28;20203;-88
2023/01/27 01:25:33;;;;;;;10.67;2.27;;;6.70;99.90;;;;;;5011730;28;20199;-83
2023/01/27 01:28:00;;;;;;;12.33;2.10;;;6.80;99.90;;;;;;5011832;28;20906;-83
2023/01/27 01:30:27;;;;;;;10.33;2.83;;;6.80;99.90;;;;;;5012182;28;20209;-86
2023/01/27 01:32:54;;;;;;;9.37;1.80;;;6.70;99.90;;;;;;5013986;28;20247;-85
2023/01/27 01:35:24;;;;;;;10.77;2.70;;;6.70;99.90;;;;;;5031190;28;20206;-85
2023/01/27 01:37:51;;;;;;;4.90;2.13;;;6.70;99.90;;;;;;5032140;28;20213;-84
2023/01/27 01:40:19;;;;;;;7.00;2.80;;;6.60;99.90;;;;;;5031130;28;20214;-86
2023/01/27 01:42:55;;;;;;;7.23;2.17;;;6.60;99.90;;;;;;5030862;28;20615;-84
2023/01/27 01:45:48;;;;;;;10.80;2.60;;;6.60;99.90;;;;;;5031108;28;20525;-86
2023/01/27 01:48:19;;;;;;;5.97;2.40;;;6.60;99.90;;;;;;5031500;28;20629;-86
2023/01/27 01:50:53;;;;;;;8.47;3.53;;;6.50;99.90;;;;;;5032044;28;20230;-84
2023/01/27 01:53:26;;;;;;;10.73;2.47;;;6.50;99.90;;;;;;5030669;28;20575;-84
2023/01/27 01:55:53;;;;;;;8.70;2.70;;;6.50;99.90;;;;;;5030168;28;20206;-87
2023/01/27 01:58:20;;;;;;;7.83;2.80;;;6.50;99.90;;;;;;5030491;28;20218;-84
2023/01/27 02:00:47;;;;;;;13.50;2.80;;;6.40;99.90;;;;;;5030722;28;20202;-85
2023/01/27 02:03:15;;;;;;;8.97;3.67;;;6.40;99.90;;;;;;5030109;28;20210;-84
2023/01/27 02:05:44;;;;;;;6.20;3.80;;;6.30;99.90;;;;;;5030225;28;20198;-85
2023/01/27 02:08:17;;;;;;;11.03;4.33;;;6.30;99.90;;;;;;5025872;28;20205;-85
2023/01/27 02:10:45;;;;;;;10.87;4.97;;;6.20;99.90;;;;;;5011121;28;20281;-85
2023/01/27 02:13:12;;;;;;;9.67;5.20;;;6.10;99.90;;;;;;5011269;28;20262;-86
2023/01/27 02:15:39;;;;;;;8.93;5.20;;;6.10;99.90;;;;;;5011677;28;20779;-84
2023/01/27 02:18:07;;;;;;;11.67;6.37;;;6.00;99.90;;;;;;5027507;28;20198;-85
2023/01/27 02:20:40;;;;;;;13.77;7.30;;;6.00;99.90;;;;;;5016863;28;20286;-87
2023/01/27 02:23:17;;;;;;;12.40;8.53;;;6.00;99.90;;;;;;5013178;28;20202;-87
2023/01/27 02:25:49;;;;;;;16.27;7.90;;;5.90;99.90;;;;;;5031536;28;20309;-91
2023/01/27 02:28:16;;;;;;;13.67;7.83;;;5.90;99.90;;;;;;5030746;28;20234;-82
2023/01/27 02:30:43;;;;;;;15.03;7.93;;;5.90;99.90;;;;;;5030837;28;20202;-90
2023/01/27 02:33:12;;;;;;;15.83;7.73;;;5.90;99.90;;;;;;5030931;28;20274;-90
2023/01/27 02:35:43;;;;;;;16.17;7.50;;;5.90;99.90;;;;;;5013671;28;20211;-90
2023/01/27 02:38:12;;;;;;;12.23;7.27;;;5.80;99.90;;;;;;5011569;28;20291;-87
2023/01/27 02:40:41;;;;;;;10.23;7.93;;;5.80;99.90;;;;;;5030758;28;20620;-89
2023/01/27 02:43:09;;;;;;;12.17;7.77;;;5.80;99.90;;;;;;5031346;28;20297;-91
2023/01/27 02:52:45;;;;;;;10.97;6.37;;;5.80;99.90;;;;;;4920496;28;20303;-88
2023/01/27 02:55:12;;;;;;;9.40;6.57;;;5.70;99.90;;;;;;5034227;28;20658;-86
2023/01/27 02:57:40;;;;;;;14.50;6.67;;;5.70;99.90;;;;;;5029523;28;20249;-88
2023/01/27 03:00:12;;;;;;;14.63;6.40;;;5.60;99.90;;;;;;5030397;28;20657;-88
2023/01/27 03:02:38;;;;;;;10.70;6.30;;;5.60;99.90;;;;;;5029430;28;20202;-88
2023/01/27 03:05:06;;;;;;;10.50;5.60;;;5.50;99.90;;;;;;5030041;28;20206;-86
2023/01/27 03:07:33;;;;;;;7.13;5.23;;;5.50;99.90;;;;;;5028910;28;20207;-84
2023/01/27 03:09:59;;;;;;;8.53;5.80;;;5.40;99.90;;;;;;5028572;28;20321;-86
2023/01/27 03:12:26;;;;;;;9.13;5.70;;;5.30;99.90;;;;;;5029359;28;20206;-84
2023/01/27 03:20:24;;;;;;;9.17;5.67;;;5.20;99.90;;;;;;5027929;28;20276;-86
2023/01/27 03:22:51;;;;;;;9.23;5.73;;;5.20;99.90;;;;;;5027166;28;20212;-87
2023/01/27 03:25:18;;;;;;;9.43;5.43;;;5.20;99.90;;;;;;5029501;28;20553;-86
2023/01/27 03:27:45;;;;;;;10.17;5.90;;;5.30;99.90;;;;;;5027844;28;20222;-84
2023/01/27 03:30:13;;;;;;;7.33;5.20;;;5.30;99.90;;;;;;5027789;28;20217;-87
2023/01/27 03:32:45;;;;;;;9.53;5.40;;;5.30;99.90;;;;;;5015927;28;20204;-85
2023/01/27 03:35:13;;;;;;;5.83;4.67;;;5.30;99.90;;;;;;5008680;28;20548;-87
2023/01/27 03:48:40;;;;;;;5.50;3.80;;;5.20;99.90;;;;;;5008620;28;20214;-87
2023/01/27 03:51:09;;;;;;;4.73;3.57;;;5.20;99.90;;;;;;5016215;28;20317;-87
2023/01/27 03:53:37;;;;;;;7.07;3.93;;;5.20;99.90;;;;;;5027800;28;20235;-86
2023/01/27 03:56:05;;;;;;;5.13;3.60;;;5.30;99.90;;;;;;5029447;28;20206;-87
2023/01/27 03:58:34;;;;;;;7.43;4.33;;;5.30;99.90;;;;;;5029655;28;20194;-87
2023/01/27 04:01:03;;;;;;;6.90;3.90;;;5.30;99.90;;;;;;5028989;28;20205;-88
2023/01/27 04:09:07;;;;;;;8.40;3.93;;;5.30;99.90;;;;;;5029836;28;20869;-89
2023/01/27 04:14:19;;;;;;;6.60;4.47;;;5.30;99.90;;;;;;5030243;28;20221;-89
2023/01/27 04:16:46;;;;;;;5.77;3.53;;;5.20;99.90;;;;;;5030885;28;20206;-89
2023/01/27 04:19:13;;;;;;;4.73;3.73;;;5.20;99.90;;;;;;5033772;28;20586;-87
2023/01/27 04:21:42;;;;;;;6.17;3.90;;;5.20;99.90;;;;;;5014986;28;20290;-89
2023/01/27 04:24:15;;;;;;;7.50;3.67;;;5.20;99.90;;;;;;5013569;28;20257;-89
2023/01/27 04:26:43;;;;;;;5.23;3.63;;;5.30;99.90;;;;;;5029099;28;20431;-87
2023/01/27 04:29:11;;;;;;;4.00;3.57;;;5.30;99.90;;;;;;5033604;28;20226;-90
2023/01/27 04:31:38;;;;;;;5.93;3.90;;;5.30;99.90;;;;;;5032978;28;20281;-88
2023/01/27 04:34:05;;;;;;;6.03;4.07;;;5.30;99.90;;;;;;5033312;28;20230;-87
2023/01/27 04:36:32;;;;;;;5.57;3.83;;;5.20;99.90;;;;;;5033150;28;20198;-87
2023/01/27 04:39:00;;;;;;;7.27;3.70;;;5.20;99.90;;;;;;5032730;28;20582;-87
2023/01/27 04:41:28;;;;;;;4.77;3.30;;;5.20;99.90;;;;;;5032760;28;20504;-89
2023/01/27 04:43:54;;;;;;;4.90;3.87;;;5.20;99.90;;;;;;5032805;28;20225;-87
2023/01/27 04:46:21;;;;;;;6.93;3.63;;;5.20;99.90;;;;;;5033350;28;20611;-86
2023/01/27 04:48:48;;;;;;;5.13;3.67;;;5.10;99.90;;;;;;5028535;28;20207;-88
2023/01/27 04:51:15;;;;;;;6.37;3.47;;;5.10;99.90;;;;;;5013029;28;20196;-86
2023/01/27 04:53:43;;;;;;;5.47;3.23;;;5.10;99.90;;;;;;5013489;28;20566;-88
2023/01/27 04:56:22;;;;;;;5.10;3.33;;;5.10;99.90;;;;;;5013404;28;20217;-88
2023/01/27 04:58:49;;;;;;;4.30;3.33;;;5.10;99.90;;;;;;5028280;28;20202;-87
2023/01/27 05:01:16;;;;;;;4.50;3.37;;;5.10;99.90;;;;;;5032239;28;20207;-88
2023/01/27 05:03:43;;;;;;;5.90;3.37;;;5.10;99.90;;;;;;5032943;28;20195;-89
2023/01/27 05:06:10;;;;;;;4.67;3.30;;;5.10;99.90;;;;;;5033388;28;20222;-89
2023/01/27 05:08:38;;;;;;;7.13;3.43;;;5.10;99.90;;;;;;5032839;28;20278;-88
2023/01/27 05:11:05;;;;;;;5.50;3.43;;;5.10;99.90;;;;;;5032985;28;20232;-89
2023/01/27 05:13:34;;;;;;;4.33;3.10;;;5.10;99.90;;;;;;5033186;28;20237;-88
2023/01/27 05:16:09;;;;;;;9.67;3.20;;;5.00;99.90;;;;;;5032744;28;20301;-88
2023/01/27 05:18:36;;;;;;;4.73;2.97;;;5.00;99.90;;;;;;5032711;28;20238;-88
2023/01/27 05:21:04;;;;;;;4.03;3.23;;;5.10;99.90;;;;;;5030225;28;20210;-87
2023/01/27 05:23:35;;;;;;;6.00;3.90;;;5.10;99.90;;;;;;5029539;28;20603;-89
2023/01/27 05:26:07;;;;;;;5.03;3.37;;;5.00;99.90;;;;;;5032098;28;20294;-90
2023/01/27 05:28:36;;;;;;;5.67;3.57;;;5.00;99.90;;;;;;5032422;28;20222;-87
2023/01/27 05:31:05;;;;;;;6.37;3.30;;;5.00;99.90;;;;;;5032108;28;20237;-89
2023/01/27 05:33:32;;;;;;;4.90;3.67;;;5.10;99.90;;;;;;5031619;28;20485;-85
2023/01/27 05:36:00;;;;;;;5.17;3.17;;;5.10;99.90;;;;;;5032855;28;20233;-85
2023/01/27 05:38:28;;;;;;;7.47;3.07;;;5.10;99.90;;;;;;5032019;28;20206;-88
2023/01/27 05:40:56;;;;;;;8.00;4.00;;;5.00;99.90;;;;;;5032359;28;20209;-88
2023/01/27 05:43:23;;;;;;;5.67;2.40;;;5.00;99.90;;;;;;5032411;28;20203;-83
2023/01/27 05:45:52;;;;;;;3.30;2.30;;;5.00;99.90;;;;;;5032277;28;20853;-87
2023/01/27 05:48:19;;;;;;;5.87;2.20;;;4.90;99.90;;;;;;5031781;28;20306;-85
2023/01/27 05:50:55;;;;;;;5.63;2.50;;;4.80;99.90;;;;;;5032011;28;20431;-86
2023/01/27 05:53:22;;;;;;;6.33;2.70;;;4.80;99.90;;;;;;5032071;28;20205;-89
2023/01/27 05:55:50;;;;;;;3.60;2.60;;;4.80;99.90;;;;;;5032161;28;20241;-88
2023/01/27 05:58:17;;;;;;;2.27;2.00;;;4.70;99.90;;;;;;5032303;28;20631;-87
2023/01/27 06:00:45;;;;;;;2.40;1.80;;;4.70;99.90;;;;;;5031187;28;20929;-87
2023/01/27 06:03:14;;;;;;;4.77;1.60;;;4.70;99.90;;;;;;5031802;28;20611;-87
2023/01/27 06:05:50;;;;;;;2.90;1.90;;;4.70;99.90;;;;;;5031820;28;20210;-87
2023/01/27 06:08:17;;;;;;;4.23;2.23;;;4.60;99.90;;;;;;5031733;28;20218;-88
2023/01/27 06:10:44;;;;;;;4.93;1.97;;;4.60;99.90;;;;;;5031393;28;20206;-88
2023/01/27 06:13:11;;;;;;;3.63;2.00;;;4.60;99.90;;;;;;5031534;28;20286;-87
2023/01/27 06:15:40;;;;;;;5.83;2.20;;;4.50;99.90;;;;;;5031118;28;20230;-87
2023/01/27 06:18:07;;;;;;;2.43;2.00;;;4.50;99.90;;;;;;5031513;28;20294;-88
2023/01/27 06:20:36;;;;;;;6.70;2.97;;;4.50;99.90;;;;;;5031824;28;20278;-86
2023/01/27 06:23:03;;;;;;;8.03;2.40;;;4.40;99.90;;;;;;5031035;28;20209;-87
2023/01/27 06:25:31;;;;;;;5.50;2.03;;;4.50;99.90;;;;;;5031540;28;20324;-86
2023/01/27 06:27:58;;;;;;;4.67;2.10;;;4.40;99.90;;;;;;5031859;28;20309;-87
2023/01/27 06:30:25;;;;;;;5.60;1.77;;;4.30;99.90;;;;;;5031151;28;20226;-88
2023/01/27 06:32:52;;;;;;;3.60;1.90;;;4.30;99.90;;;;;;5031537;28;20210;-87
2023/01/27 06:35:18;;;;;;;7.43;3.50;;;4.20;99.90;;;;;;5031533;28;20619;-87
2023/01/27 06:37:48;;;;;;;7.13;3.20;;;4.20;99.90;;;;;;5017006;28;20217;-87
2023/01/27 06:40:16;;;;;;;4.57;2.10;;;4.20;99.90;;;;;;5010390;28;20199;-87
2023/01/27 06:42:43;;;;;;;6.40;2.20;;;4.20;99.90;;;;;;5011014;28;20243;-85
2023/01/27 06:45:11;;;;;;;5.10;2.03;;;4.10;99.90;;;;;;5005331;28;20313;-88
2023/01/27 06:47:39;;;;;;;8.77;3.43;;;4.10;99.90;;;;;;5004810;28;20207;-85
2023/01/27 06:50:07;;;;;;;5.10;1.90;;;4.10;99.90;;;;;;5006709;28;20195;-85
2023/01/27 06:52:34;;;;;;;4.70;2.23;;;4.10;99.90;;;;;;5021013;28;20288;-85
2023/01/27 06:55:03;;;;;;;3.27;2.00;;;4.10;99.90;;;;;;5029681;28;20512;-86
2023/01/27 06:57:31;;;;;;;3.37;1.67;;;4.00;99.90;;;;;;5030315;28;20510;-85
2023/01/27 06:59:58;;;;;;;8.80;4.70;;;4.00;99.90;;;;;;5031021;28;20206;-86
2023/01/27 07:02:25;;;;;;;7.90;2.10;;;4.10;99.90;;;;;;5015024;28;20234;-86
2023/01/27 07:04:51;;;;;;;2.00;1.70;;;4.00;99.90;;;;;;5010801;28;20207;-87
2023/01/27 07:07:18;;;;;;;1.67;1.50;;;3.90;99.90;;;;;;5011343;28;20207;-85
2023/01/27 07:09:45;;;;;;;2.97;1.70;;;3.90;99.90;;;;;;5026681;28;20211;-87
2023/01/27 07:12:13;;;;;;;7.93;3.60;;;3.90;99.90;;;;;;5031026;28;20190;-86
2023/01/27 07:14:40;;;;;;;10.47;2.27;;;3.80;99.90;;;;;;5030333;28;20226;-86
2023/01/27 07:17:07;;;;;;;3.23;1.97;;;3.80;99.90;;;;;;5030965;28;20936;-86
2023/01/27 07:19:34;;;;;;;4.07;2.50;;;3.70;99.90;;;;;;5029983;28;20256;-86
2023/01/27 07:22:01;;;;;;;5.30;2.50;;;3.70;99.90;;;;;;5030192;28;20243;-86
2023/01/27 07:24:28;;;;;;;3.03;1.70;;;3.70;99.90;;;;;;5030100;28;20290;-87
2023/01/27 07:26:55;;;;;;;5.33;2.20;;;3.80;99.90;;;;;;5030737;28;20230;-86
2023/01/27 07:29:23;;;;;;;7.47;2.80;;;3.70;99.90;;;;;;5029914;28;20237;-86
2023/01/27 07:31:50;;;;;;;6.00;2.57;;;3.70;99.90;;;;;;5029994;28;20925;-87
2023/01/27 07:34:17;;;;;;;4.27;2.13;;;3.70;99.90;;;;;;5030679;28;20667;-88
2023/01/27 07:36:44;;;;;;;3.47;1.87;;;3.60;99.90;;;;;;5012595;28;20230;-87
2023/01/27 07:39:11;;;;;;;3.53;1.73;;;3.70;99.90;;;;;;5020928;28;20638;-87
2023/01/27 07:41:37;;;;;;;5.17;1.90;;;3.60;99.90;;;;;;5008164;28;20230;-84
2023/01/27 07:44:05;;;;;;;3.50;1.87;;;3.60;99.90;;;;;;5026179;28;20289;-81
2023/01/27 07:46:33;;;;;;;5.13;2.20;;;3.60;99.90;;;;;;5027315;28;20210;-84
2023/01/27 07:49:00;;;;;;;2.73;2.50;;;3.60;99.90;;;;;;5029223;28;20625;-84
2023/01/27 07:51:27;;;;;;;4.60;2.20;;;3.50;99.90;;;;;;5029088;28;20202;-85
2023/01/27 07:53:54;;;;;;;4.03;2.40;;;3.50;99.90;;;;;;5007954;28;20216;-86
2023/01/27 07:56:21;;;;;;;9.37;2.80;;;3.60;99.90;;;;;;5029479;28;20206;-84
2023/01/27 07:58:47;;;;;;;4.97;2.70;;;3.60;99.90;;;;;;5024980;28;20235;-83
2023/01/27 08:01:14;;;;;;;6.80;2.50;;;3.60;99.90;;;;;;5027638;28;20212;-86
2023/01/27 08:03:43;;;;;;;7.87;3.70;;;3.50;99.90;;;;;;5011880;28;20202;-84
2023/01/27 08:06:11;;;;;;;6.47;2.33;;;3.50;99.90;;;;;;5029218;28;20214;-84
2023/01/27 08:08:38;;;;;;;4.47;2.60;;;3.50;99.90;;;;;;5023624;28;20206;-83
2023/01/27 08:11:08;;;;;;;3.67;2.50;;;3.50;99.90;;;;;;5028758;28;20296;-82
2023/01/27 08:13:35;;;;;;;3.47;2.27;;;3.60;99.90;;;;;;5028440;28;20218;-82
2023/01/27 08:16:04;;;;;;;8.27;3.40;;;3.60;99.90;;;;;;5027868;28;20321;-83
2023/01/27 08:18:32;;;;;;;4.80;2.53;;;3.50;99.90;;;;;;5026885;28;20210;-84
2023/01/27 08:21:03;;;;;;;9.33;3.23;;;3.50;99.90;;;;;;5024428;28;20210;-85
2023/01/27 08:23:30;;;;;;;2.87;2.37;;;3.60;99.90;;;;;;5024413;28;20215;-84
2023/01/27 08:25:58;;;;;;;4.80;2.97;;;3.60;99.90;;;;;;5016718;28;20211;-88
2023/01/27 08:28:27;;;;;;;7.33;3.43;;;3.60;99.90;;;;;;5009287;28;20253;-87
2023/01/27 08:30:54;;;;;;;6.07;3.27;;;3.60;99.90;;;;;;5009836;28;20627;-87
2023/01/27 08:33:23;;;;;;;4.57;2.83;;;3.70;99.90;;;;;;5010847;28;20621;-85
2023/01/27 08:35:50;;;;;;;5.30;3.30;;;3.70;99.90;;;;;;5019852;28;20305;-86
2023/01/27 08:38:19;;;;;;;12.30;4.50;;;3.70;99.90;;;;;;5029877;28;20413;-86
2023/01/27 08:40:48;;;;;;;7.57;3.70;;;3.70;99.90;;;;;;5017855;28;20286;-86
2023/01/27 08:43:16;;;;;;;4.53;3.00;;;3.80;99.90;;;;;;5025286;28;20211;-85
2023/01/27 08:45:45;;;;;;;3.37;2.23;;;3.80;99.90;;;;;;5024197;28;20207;-84
2023/01/27 08:48:12;;;;;;;4.07;2.40;;;3.80;99.90;;;;;;5024110;28;20207;-84
2023/01/27 08:50:39;;;;;;;6.00;2.50;;;3.90;99.90;;;;;;5027828;28;20245;-86
2023/01/27 08:53:06;;;;;;;2.53;2.13;;;3.90;99.90;;;;;;5028423;28;20288;-84
2023/01/27 08:55:35;;;;;;;2.83;2.40;;;3.90;99.90;;;;;;5028324;28;20733;-85
2023/01/27 08:58:02;;;;;;;5.93;2.20;;;4.00;99.90;;;;;;5028032;28;20203;-86
2023/01/27 09:00:29;;;;;;;2.93;2.40;;;4.00;99.90;;;;;;5028501;28;20206;-84
2023/01/27 09:02:56;;;;;;;4.30;2.27;;;4.00;99.90;;;;;;5028486;28;20939;-86
2023/01/27 09:05:23;;;;;;;5.07;1.87;;;4.00;99.90;;;;;;5031703;28;20702;-85
2023/01/27 09:07:50;;;;;;;8.77;2.43;;;4.10;99.90;;;;;;5030142;28;20289;-84
2023/01/27 09:10:18;;;;;;;5.93;2.97;;;4.20;99.90;;;;;;5032065;28;20206;-84
2023/01/27 09:12:47;;;;;;;3.50;1.80;;;4.20;99.90;;;;;;5031410;28;20202;-84
2023/01/27 09:15:15;;;;;;;3.73;2.50;;;4.20;99.90;;;;;;5032313;28;20230;-86
2023/01/27 09:17:42;;;;;;;5.23;1.80;;;4.20;99.90;;;;;;5029076;28;20261;-85
2023/01/27 09:20:11;;;;;;;5.57;2.23;;;4.30;99.90;;;;;;5030562;28;20217;-84
2023/01/27 09:22:39;;;;;;;6.30;2.40;;;4.40;99.90;;;;;;5030856;28;20900;-86
2023/01/27 09:25:07;;;;;;;3.80;1.80;;;4.40;99.90;;;;;;5030094;28;20746;-83
2023/01/27 09:27:34;;;;;;;4.53;1.70;;;4.50;99.90;;;;;;5027343;28;20317;-85
2023/01/27 09:30:03;;;;;;;6.90;3.20;;;4.60;99.90;;;;;;5024077;28;20194;-86
2023/01/27 09:32:29;;;;;;;4.87;1.77;;;4.60;99.90;;;;;;5029207;28;20751;-83
2023/01/27 09:34:57;;;;;;;2.83;1.60;;;4.60;99.90;;;;;;5019482;28;20235;-85
2023/01/27 09:37:24;;;;;;;5.30;1.80;;;4.60;99.90;;;;;;5019600;28;20206;-87
2023/01/27 09:39:59;;;;;;;3.47;1.40;;;4.70;99.90;;;;;;5030511;28;20198;-84
2023/01/27 09:42:47;;;;;;;2.50;1.50;;;4.70;99.90;;;;;;5031145;28;20298;-85
2023/01/27 09:45:36;;;;;;;8.50;2.37;;;4.80;99.90;;;;;;5030482;28;20191;-81
2023/01/27 09:48:28;;;;;;;3.90;2.13;;;4.80;99.90;;;;;;5030189;28;20210;-82
2023/01/27 09:51:00;;;;;;;3.70;1.40;;;4.80;99.90;;;;;;5029691;28;20214;-85
2023/01/27 09:53:51;;;;;;;3.00;2.03;;;4.90;99.90;;;;;;5010522;28;20217;-85
2023/01/27 09:56:27;;;;;;;4.03;1.40;;;4.90;99.90;;;;;;5006434;28;20211;-85
2023/01/27 09:59:09;;;;;;;6.50;2.57;;;4.90;99.90;;;;;;5011038;28;20286;-88
2023/01/27 10:01:46;;;;;;;3.20;1.20;;;4.90;99.90;;;;;;5010886;28;20253;-85
2023/01/27 10:04:35;;;;;;;2.90;1.50;;;4.90;99.90;;;;;;5012403;28;20497;-88
2023/01/27 10:07:26;;;;;;;4.43;1.50;;;5.00;99.90;;;;;;5018821;28;20298;-90
2023/01/27 10:10:09;;;;;;;0.93;0.93;;;5.10;99.90;;;;;;5030872;28;20659;-90
2023/01/27 10:12:56;;;;;;;2.40;1.40;;;5.10;99.90;;;;;;5031231;28;20240;-91
2023/01/27 10:15:38;;;;;;;2.10;1.40;;;5.20;99.90;;;;;;5012887;28;20215;-90
2023/01/27 10:18:18;;;;;;;2.53;1.37;;;5.20;99.90;;;;;;5030714;28;20199;-92
2023/01/27 10:20:54;;;;;;;2.70;1.10;;;5.20;99.90;;;;;;5030492;28;20355;-88
2023/01/27 10:23:38;;;;;;;1.93;1.10;;;5.20;99.90;;;;;;5029726;28;20269;-88
2023/01/27 10:26:18;;;;;;;3.43;2.00;;;5.20;99.90;;;;;;5026299;28;20225;-90
2023/01/27 10:28:51;;;;;;;2.47;1.10;;;5.30;99.90;;;;;;5025413;28;20222;-90
2023/01/27 10:31:25;;;;;;;1.70;1.00;;;5.30;99.90;;;;;;5014517;28;20593;-90
2023/01/27 10:33:57;;;;;;;1.23;1.00;;;5.30;99.90;;;;;;5006398;28;20245;-87
2023/01/27 10:36:28;;;;;;;1.17;1.00;;;5.30;99.90;;;;;;5020034;28;20199;-86
2023/01/27 10:39:13;;;;;;;2.13;0.97;;;5.40;99.90;;;;;;5030385;28;20222;-85
2023/01/27 10:41:52;;;;;;;2.37;1.00;;;5.40;99.90;;;;;;5030484;28;20211;-87
2023/01/27 10:44:40;;;;;;;2.57;1.30;;;5.40;99.90;;;;;;5030188;28;20213;-86
2023/01/27 10:47:15;;;;;;;1.77;1.10;;;5.40;99.90;;;;;;5031131;28;20249;-87
2023/01/27 10:49:50;;;;;;;1.83;1.03;;;5.50;99.90;;;;;;5010069;28;20263;-85
2023/01/27 10:52:22;;;;;;;2.63;1.23;;;5.50;99.90;;;;;;5011078;28;20207;-87
2023/01/27 10:54:55;;;;;;;1.60;1.13;;;5.50;99.90;;;;;;5025206;28;20218;-87
2023/01/27 10:57:29;;;;;;;0.80;0.80;;;5.50;99.90;;;;;;5030671;28;20205;-87
2023/01/27 11:00:04;;;;;;;3.93;1.00;;;5.50;99.90;;;;;;5030739;28;20306;-88
2023/01/27 11:02:38;;;;;;;2.20;1.10;;;5.60;99.90;;;;;;5023254;28;20211;-86
2023/01/27 11:05:11;;;;;;;1.53;0.90;;;5.60;99.90;;;;;;5026155;28;20207;-87
2023/01/27 11:07:46;;;;;;;2.47;1.13;;;5.60;99.90;;;;;;5017395;28;20215;-86
2023/01/27 11:10:18;;;;;;;1.37;1.27;;;5.60;99.90;;;;;;5029588;28;20260;-85
2023/01/27 11:12:52;;;;;;;2.60;0.90;;;5.60;99.90;;;;;;5019726;28;20217;-84
2023/01/27 11:15:25;;;;;;;1.07;0.90;;;5.60;99.90;;;;;;5028310;28;20214;-87
2023/01/27 11:17:57;;;;;;;3.37;1.00;;;5.60;99.90;;;;;;5023520;28;20221;-87
2023/01/27 11:20:30;;;;;;;1.27;0.87;;;5.70;99.90;;;;;;5007396;28;20203;-85
2023/01/27 11:23:03;;;;;;;2.73;0.80;;;5.70;99.90;;;;;;5018454;28;20502;-86
2023/01/27 11:25:41;;;;;;;3.13;0.90;;;5.70;99.90;;;;;;5028548;28;20205;-86
2023/01/27 11:28:23;;;;;;;1.70;1.00;;;5.80;99.90;;;;;;5024815;28;20904;-86
2023/01/27 11:31:02;;;;;;;1.37;0.70;;;5.80;99.90;;;;;;5028318;28;20209;-88
2023/01/27 11:33:39;;;;;;;1.53;0.93;;;5.80;99.90;;;;;;5028971;28;20957;-88
2023/01/27 11:36:09;;;;;;;1.73;1.03;;;5.80;99.90;;;;;;5029788;28;20341;-87
2023/01/27 11:38:37;;;;;;;1.53;1.13;;;5.80;99.90;;;;;;5030141;28;20286;-88
2023/01/27 11:41:04;;;;;;;3.40;1.10;;;5.90;99.90;;;;;;5029584;28;20238;-86
2023/01/27 11:43:33;;;;;;;0.63;0.60;;;5.90;99.90;;;;;;5029290;28;20302;-88
2023/01/27 11:46:03;;;;;;;0.87;0.70;;;5.90;99.90;;;;;;5025273;28;20222;-83
2023/01/27 11:48:39;;;;;;;0.70;0.60;;;5.90;99.90;;;;;;5027585;28;20591;-86
2023/01/27 11:51:15;;;;;;;3.90;0.77;;;5.90;99.90;;;;;;5023050;28;20288;-87
2023/01/27 11:53:43;;;;;;;3.03;0.63;;;5.90;99.90;;;;;;5027891;28;20195;-87
2023/01/27 11:56:17;;;;;;;3.30;0.90;;;5.90;99.90;;;;;;5028925;28;20309;-86
2023/01/27 11:58:49;;;;;;;4.80;1.67;;;6.00;99.90;;;;;;5020834;28;20197;-88
2023/01/27 12:01:19;;;;;;;1.30;0.73;;;6.00;99.90;;;;;;5013573;28;20218;-87
2023/01/27 12:03:52;;;;;;;1.77;0.63;;;6.20;99.90;;;;;;5017057;28;20290;-85
2023/01/27 12:06:32;;;;;;;2.00;0.90;;;6.30;99.90;;;;;;5020614;28;20202;-86
2023/01/27 12:08:59;;;;;;;1.03;0.80;;;6.30;99.90;;;;;;5008827;28;20206;-87
2023/01/27 12:11:28;;;;;;;0.80;0.80;;;6.30;99.90;;;;;;5014398;28;20294;-87
2023/01/27 12:13:57;;;;;;;2.27;0.80;;;6.30;99.90;;;;;;5029151;28;20228;-85
2023/01/27 12:16:42;;;;;;;0.80;0.70;;;6.30;99.90;;;;;;5028954;28;20517;-86
2023/01/27 12:19:21;;;;;;;0.60;0.60;;;6.30;99.90;;;;;;5029204;28;20234;-87
2023/01/27 12:21:52;;;;;;;1.23;0.40;;;6.30;99.90;;;;;;5029091;28;20294;-87
2023/01/27 12:24:30;;;;;;;2.17;1.20;;;6.20;99.90;;;;;;5030753;28;20482;-89
2023/01/27 12:26:59;;;;;;;1.80;0.60;;;6.10;99.90;;;;;;5010135;28;20231;-82
2023/01/27 12:29:32;;;;;;;0.90;0.80;;;6.10;99.90;;;;;;5009775;28;20266;-89
2023/01/27 12:32:00;;;;;;;2.93;0.87;;;6.10;99.90;;;;;;5010669;28;20207;-84
2023/01/27 12:34:31;;;;;;;0.53;0.50;;;6.00;99.90;;;;;;5005493;28;20323;-85
2023/01/27 12:37:02;;;;;;;2.00;0.60;;;6.10;99.90;;;;;;5010448;28;20270;-88
2023/01/27 12:39:40;;;;;;;1.40;0.60;;;6.10;99.90;;;;;;5012780;28;20315;-84
2023/01/27 12:42:34;;;;;;;1.60;0.57;;;6.10;99.90;;;;;;5013104;28;20257;-85
2023/01/27 12:45:15;;;;;;;0.60;0.60;;;6.10;99.90;;;;;;5012824;28;20563;-83
2023/01/27 12:47:56;;;;;;;0.60;0.60;;;6.00;99.90;;;;;;5012562;28;20209;-87
2023/01/27 12:50:24;;;;;;;2.07;0.70;;;5.90;99.90;;;;;;5012848;28;20289;-87
2023/01/27 12:53:05;;;;;;;1.37;0.87;;;5.90;99.90;;;;;;5013259;28;20274;-88
2023/01/27 12:55:34;;;;;;;0.80;0.70;;;5.90;99.90;;;;;;5012221;28;20253;-86
2023/01/27 12:58:01;;;;;;;1.23;0.60;;;5.90;99.90;;;;;;5010547;28;20211;-86
2023/01/27 13:00:29;;;;;;;1.70;0.67;;;6.00;99.90;;;;;;5009891;28;20207;-87
2023/01/27 13:03:05;;;;;;;0.63;0.50;;;5.90;99.90;;;;;;5012944;28;20235;-88
2023/01/27 13:05:38;;;;;;;1.13;0.97;;;5.90;99.90;;;;;;4994432;28;20200;-89
2023/01/27 13:08:14;;;;;;;1.50;0.90;;;5.90;99.90;;;;;;4994128;28;20284;-89
2023/01/27 13:10:50;;;;;;;1.33;0.90;;;5.90;99.90;;;;;;4993619;28;20229;-88
2023/01/27 13:13:23;;;;;;;1.40;0.73;;;5.90;99.90;;;;;;5006124;28;20235;-88
2023/01/27 13:15:56;;;;;;;0.97;0.70;;;6.00;99.90;;;;;;5013489;28;21259;-89
2023/01/27 13:18:23;;;;;;;1.20;0.90;;;5.90;99.90;;;;;;5003765;28;20670;-89
2023/01/27 13:20:55;;;;;;;0.90;0.77;;;6.00;99.90;;;;;;4994240;28;20692;-88
2023/01/27 13:23:26;;;;;;;0.90;0.70;;;6.00;99.90;;;;;;5006750;28;20693;-89
2023/01/27 13:25:57;;;;;;;1.00;0.67;;;6.00;99.90;;;;;;5002102;28;20215;-89
2023/01/27 13:28:29;;;;;;;1.83;0.70;;;5.90;99.90;;;;;;5012499;28;20310;-85
2023/01/27 13:31:02;;;;;;;8.17;1.90;;;5.90;99.90;;;;;;5011771;28;20278;-86
2023/01/27 13:33:39;;;;;;;1.00;0.80;;;5.90;99.90;;;;;;5006291;28;20466;-88
2023/01/27 13:36:11;;;;;;;1.37;0.70;;;5.90;99.90;;;;;;4987983;28;20339;-88
2023/01/27 13:38:49;;;;;;;2.87;1.03;;;5.90;99.90;;;;;;4997555;28;20203;-89
2023/01/27 13:41:25;;;;;;;1.40;0.87;;;5.80;99.90;;;;;;5012255;28;20307;-89
2023/01/27 13:44:00;;;;;;;1.50;0.80;;;5.80;99.90;;;;;;5008969;28;20214;-89
2023/01/27 13:46:31;;;;;;;1.60;0.70;;;5.80;99.90;;;;;;4992596;28;20823;-89
2023/01/27 13:49:03;;;;;;;4.80;2.40;;;5.80;99.90;;;;;;4999465;28;20204;-89
2023/01/27 13:51:31;;;;;;;0.93;0.80;;;5.80;99.90;;;;;;4995735;28;20273;-88
2023/01/27 13:54:01;;;;;;;1.53;0.70;;;5.80;99.90;;;;;;5012556;28;20201;-85